sensor_id;sensor_type;location;lat;lon;timestamp;P1;durP1;ratioP1;P2;durP2;ratioP2
21122;SDS011;10719;48.130;11.630;2022-12-29T00:01:32;0.87;;;0.73;;
21122;SDS011;10719;48.130;11.630;2022-12-29T00:03:57;0.63;;;0.40;;
21122;SDS011;10719;48.130;11.630;2022-12-29T00:06:23;0.30;;;0.30;;
21122;SDS011;10719;48.130;11.630;2022-12-29T00:08:49;0.57;;;0.47;;
21122;SDS011;10719;48.130;11.630;2022-12-29T00:11:19;2.37;;;1.00;;
21122;SDS011;10719;48.130;11.630;2022-12-29T00:13:47;1.00;;;0.80;;
21122;SDS011;10719;48.130;11.630;2022-12-29T00:16:32;0.20;;;0.20;;
21122;SDS011;10719;48.130;11.630;2022-12-29T00:19:00;2.25;;;0.80;;
21122;SDS011;10719;48.130;11.630;2022-12-29T00:21:26;1.30;;;0.80;;
21122;SDS011;10719;48.130;11.630;2022-12-29T00:24:16;2.05;;;0.80;;
21122;SDS011;10719;48.130;11.630;2022-12-29T00:26:56;2.10;;;0.80;;
21122;SDS011;10719;48.130;11.630;2022-12-29T00:30:02;0.55;;;0.45;;
21122;SDS011;10719;48.130;11.630;2022-12-29T00:32:46;1.55;;;0.57;;
21122;SDS011;10719;48.130;11.630;2022-12-29T00:36:14;0.25;;;0.25;;
21122;SDS011;10719;48.130;11.630;2022-12-29T00:38:22;1.40;;;0.50;;
21122;SDS011;10719;48.130;11.630;2022-12-29T00:41:06;0.50;;;0.40;;
21122;SDS011;10719;48.130;11.630;2022-12-29T00:43:50;0.55;;;0.45;;
21122;SDS011;10719;48.130;11.630;2022-12-29T00:46:34;1.52;;;0.70;;
21122;SDS011;10719;48.130;11.630;2022-12-29T00:49:01;1.15;;;0.77;;
21122;SDS011;10719;48.130;11.630;2022-12-29T00:51:46;2.35;;;0.80;;
21122;SDS011;10719;48.130;11.630;2022-12-29T00:54:12;0.40;;;0.40;;
21122;SDS011;10719;48.130;11.630;2022-12-29T00:56:38;0.40;;;0.40;;
21122;SDS011;10719;48.130;11.630;2022-12-29T00:59:08;2.13;;;1.02;;
21122;SDS011;10719;48.130;11.630;2022-12-29T01:01:35;2.58;;;0.82;;
21122;SDS011;10719;48.130;11.630;2022-12-29T01:04:02;1.52;;;0.38;;
21122;SDS011;10719;48.130;11.630;2022-12-29T01:06:28;0.52;;;0.50;;
21122;SDS011;10719;48.130;11.630;2022-12-29T01:08:54;1.10;;;0.80;;
21122;SDS011;10719;48.130;11.630;2022-12-29T01:11:38;0.87;;;0.60;;
21122;SDS011;10719;48.130;11.630;2022-12-29T01:14:04;0.60;;;0.57;;
21122;SDS011;10719;48.130;11.630;2022-12-29T01:16:31;0.53;;;0.53;;
21122;SDS011;10719;48.130;11.630;2022-12-29T01:18:57;0.50;;;0.50;;
21122;SDS011;10719;48.130;11.630;2022-12-29T01:21:22;0.73;;;0.53;;
21122;SDS011;10719;48.130;11.630;2022-12-29T01:23:48;1.70;;;0.63;;
21122;SDS011;10719;48.130;11.630;2022-12-29T01:26:15;0.90;;;0.37;;
21122;SDS011;10719;48.130;11.630;2022-12-29T01:28:41;8.70;;;0.60;;
21122;SDS011;10719;48.130;11.630;2022-12-29T01:31:07;0.47;;;0.47;;
21122;SDS011;10719;48.130;11.630;2022-12-29T01:33:37;0.63;;;0.50;;
21122;SDS011;10719;48.130;11.630;2022-12-29T01:36:04;0.83;;;0.50;;
21122;SDS011;10719;48.130;11.630;2022-12-29T01:38:32;2.20;;;1.10;;
21122;SDS011;10719;48.130;11.630;2022-12-29T01:40:58;0.50;;;0.50;;
21122;SDS011;10719;48.130;11.630;2022-12-29T01:43:43;2.03;;;0.50;;
21122;SDS011;10719;48.130;11.630;2022-12-29T01:51:33;0.47;;;0.30;;
21122;SDS011;10719;48.130;11.630;2022-12-29T01:54:04;0.70;;;0.47;;
21122;SDS011;10719;48.130;11.630;2022-12-29T01:56:34;0.30;;;0.30;;
21122;SDS011;10719;48.130;11.630;2022-12-29T01:59:02;0.30;;;0.30;;
21122;SDS011;10719;48.130;11.630;2022-12-29T02:01:31;0.43;;;0.33;;
21122;SDS011;10719;48.130;11.630;2022-12-29T02:03:57;0.40;;;0.40;;
21122;SDS011;10719;48.130;11.630;2022-12-29T02:06:26;0.50;;;0.50;;
21122;SDS011;10719;48.130;11.630;2022-12-29T02:08:56;0.40;;;0.30;;
21122;SDS011;10719;48.130;11.630;2022-12-29T02:11:23;2.10;;;0.40;;
21122;SDS011;10719;48.130;11.630;2022-12-29T02:13:51;0.73;;;0.50;;
21122;SDS011;10719;48.130;11.630;2022-12-29T02:19:18;1.38;;;0.60;;
21122;SDS011;10719;48.130;11.630;2022-12-29T02:27:51;0.40;;;0.40;;
21122;SDS011;10719;48.130;11.630;2022-12-29T02:33:02;0.70;;;0.50;;
21122;SDS011;10719;48.130;11.630;2022-12-29T02:35:50;0.40;;;0.40;;
21122;SDS011;10719;48.130;11.630;2022-12-29T02:41:24;0.30;;;0.30;;
21122;SDS011;10719;48.130;11.630;2022-12-29T02:52:02;0.65;;;0.57;;
21122;SDS011;10719;48.130;11.630;2022-12-29T02:54:35;0.55;;;0.40;;
21122;SDS011;10719;48.130;11.630;2022-12-29T02:57:40;1.35;;;0.60;;
21122;SDS011;10719;48.130;11.630;2022-12-29T03:00:10;0.52;;;0.50;;
21122;SDS011;10719;48.130;11.630;2022-12-29T03:10:48;0.30;;;0.30;;
21122;SDS011;10719;48.130;11.630;2022-12-29T03:13:23;0.50;;;0.50;;
21122;SDS011;10719;48.130;11.630;2022-12-29T03:21:41;0.30;;;0.30;;
21122;SDS011;10719;48.130;11.630;2022-12-29T03:24:32;1.20;;;0.55;;
21122;SDS011;10719;48.130;11.630;2022-12-29T03:27:02;0.82;;;0.30;;
21122;SDS011;10719;48.130;11.630;2022-12-29T03:29:32;0.32;;;0.32;;
21122;SDS011;10719;48.130;11.630;2022-12-29T03:32:01;1.13;;;0.50;;
21122;SDS011;10719;48.130;11.630;2022-12-29T03:34:29;1.95;;;0.85;;
21122;SDS011;10719;48.130;11.630;2022-12-29T03:37:07;0.30;;;0.30;;
21122;SDS011;10719;48.130;11.630;2022-12-29T03:39:37;0.40;;;0.40;;
21122;SDS011;10719;48.130;11.630;2022-12-29T03:42:13;1.30;;;0.70;;
21122;SDS011;10719;48.130;11.630;2022-12-29T03:44:43;0.43;;;0.40;;
21122;SDS011;10719;48.130;11.630;2022-12-29T03:47:09;0.98;;;0.60;;
21122;SDS011;10719;48.130;11.630;2022-12-29T03:49:36;0.82;;;0.63;;
21122;SDS011;10719;48.130;11.630;2022-12-29T03:52:02;1.52;;;0.38;;
21122;SDS011;10719;48.130;11.630;2022-12-29T03:54:29;0.40;;;0.40;;
21122;SDS011;10719;48.130;11.630;2022-12-29T03:56:55;0.85;;;0.30;;
21122;SDS011;10719;48.130;11.630;2022-12-29T03:59:20;0.28;;;0.28;;
21122;SDS011;10719;48.130;11.630;2022-12-29T04:01:46;0.30;;;0.30;;
21122;SDS011;10719;48.130;11.630;2022-12-29T04:04:12;0.40;;;0.40;;
21122;SDS011;10719;48.130;11.630;2022-12-29T04:06:38;0.20;;;0.20;;
21122;SDS011;10719;48.130;11.630;2022-12-29T04:09:04;0.22;;;0.22;;
21122;SDS011;10719;48.130;11.630;2022-12-29T04:11:30;0.88;;;0.60;;
21122;SDS011;10719;48.130;11.630;2022-12-29T04:13:55;1.65;;;0.75;;
21122;SDS011;10719;48.130;11.630;2022-12-29T04:16:21;0.52;;;0.40;;
21122;SDS011;10719;48.130;11.630;2022-12-29T04:18:46;0.85;;;0.40;;
21122;SDS011;10719;48.130;11.630;2022-12-29T04:21:12;0.35;;;0.30;;
21122;SDS011;10719;48.130;11.630;2022-12-29T04:23:38;1.65;;;0.57;;
21122;SDS011;10719;48.130;11.630;2022-12-29T04:26:04;2.30;;;0.63;;
21122;SDS011;10719;48.130;11.630;2022-12-29T04:28:34;1.60;;;0.43;;
21122;SDS011;10719;48.130;11.630;2022-12-29T04:31:00;1.40;;;0.35;;
21122;SDS011;10719;48.130;11.630;2022-12-29T04:33:27;0.65;;;0.40;;
21122;SDS011;10719;48.130;11.630;2022-12-29T04:35:52;0.20;;;0.20;;
21122;SDS011;10719;48.130;11.630;2022-12-29T04:38:19;0.57;;;0.40;;
21122;SDS011;10719;48.130;11.630;2022-12-29T04:40:45;0.30;;;0.30;;
21122;SDS011;10719;48.130;11.630;2022-12-29T04:43:11;0.40;;;0.35;;
21122;SDS011;10719;48.130;11.630;2022-12-29T04:45:38;2.08;;;0.75;;
21122;SDS011;10719;48.130;11.630;2022-12-29T04:48:08;1.38;;;0.55;;
21122;SDS011;10719;48.130;11.630;2022-12-29T04:50:33;1.95;;;0.75;;
21122;SDS011;10719;48.130;11.630;2022-12-29T04:52:59;0.60;;;0.50;;
21122;SDS011;10719;48.130;11.630;2022-12-29T04:55:25;2.40;;;0.73;;
21122;SDS011;10719;48.130;11.630;2022-12-29T04:57:51;1.52;;;0.60;;
21122;SDS011;10719;48.130;11.630;2022-12-29T05:00:16;0.80;;;0.50;;
21122;SDS011;10719;48.130;11.630;2022-12-29T05:02:42;0.30;;;0.30;;
21122;SDS011;10719;48.130;11.630;2022-12-29T05:05:08;1.00;;;0.40;;
21122;SDS011;10719;48.130;11.630;2022-12-29T05:07:34;1.13;;;0.50;;
21122;SDS011;10719;48.130;11.630;2022-12-29T05:10:00;0.93;;;0.50;;
21122;SDS011;10719;48.130;11.630;2022-12-29T05:12:25;0.50;;;0.50;;
21122;SDS011;10719;48.130;11.630;2022-12-29T05:14:55;0.50;;;0.35;;
21122;SDS011;10719;48.130;11.630;2022-12-29T05:17:20;0.77;;;0.40;;
21122;SDS011;10719;48.130;11.630;2022-12-29T05:19:46;0.20;;;0.20;;
21122;SDS011;10719;48.130;11.630;2022-12-29T05:22:11;0.68;;;0.60;;
21122;SDS011;10719;48.130;11.630;2022-12-29T05:24:37;0.50;;;0.40;;
21122;SDS011;10719;48.130;11.630;2022-12-29T05:27:02;0.63;;;0.55;;
21122;SDS011;10719;48.130;11.630;2022-12-29T05:29:28;0.30;;;0.30;;
21122;SDS011;10719;48.130;11.630;2022-12-29T05:31:53;1.48;;;0.70;;
21122;SDS011;10719;48.130;11.630;2022-12-29T05:34:19;0.93;;;0.52;;
21122;SDS011;10719;48.130;11.630;2022-12-29T05:36:45;1.45;;;0.82;;
21122;SDS011;10719;48.130;11.630;2022-12-29T05:39:10;1.15;;;0.65;;
21122;SDS011;10719;48.130;11.630;2022-12-29T05:41:36;1.40;;;0.70;;
21122;SDS011;10719;48.130;11.630;2022-12-29T05:44:01;0.63;;;0.40;;
21122;SDS011;10719;48.130;11.630;2022-12-29T05:46:27;0.70;;;0.45;;
21122;SDS011;10719;48.130;11.630;2022-12-29T05:48:53;1.65;;;0.85;;
21122;SDS011;10719;48.130;11.630;2022-12-29T05:51:18;1.40;;;0.50;;
21122;SDS011;10719;48.130;11.630;2022-12-29T05:53:44;2.65;;;0.50;;
21122;SDS011;10719;48.130;11.630;2022-12-29T05:56:10;0.52;;;0.50;;
21122;SDS011;10719;48.130;11.630;2022-12-29T05:58:35;1.58;;;0.80;;
21122;SDS011;10719;48.130;11.630;2022-12-29T06:01:01;1.55;;;0.57;;
21122;SDS011;10719;48.130;11.630;2022-12-29T06:03:26;1.02;;;0.63;;
21122;SDS011;10719;48.130;11.630;2022-12-29T06:05:52;0.50;;;0.47;;
21122;SDS011;10719;48.130;11.630;2022-12-29T06:08:17;0.70;;;0.60;;
21122;SDS011;10719;48.130;11.630;2022-12-29T06:10:43;0.50;;;0.50;;
21122;SDS011;10719;48.130;11.630;2022-12-29T06:13:08;0.50;;;0.40;;
21122;SDS011;10719;48.130;11.630;2022-12-29T06:15:34;3.22;;;0.82;;
21122;SDS011;10719;48.130;11.630;2022-12-29T06:18:00;0.55;;;0.50;;
21122;SDS011;10719;48.130;11.630;2022-12-29T06:20:26;1.63;;;0.50;;
21122;SDS011;10719;48.130;11.630;2022-12-29T06:22:52;0.75;;;0.55;;
21122;SDS011;10719;48.130;11.630;2022-12-29T06:25:17;1.15;;;0.70;;
21122;SDS011;10719;48.130;11.630;2022-12-29T06:27:43;0.85;;;0.57;;
21122;SDS011;10719;48.130;11.630;2022-12-29T06:30:09;0.95;;;0.45;;
21122;SDS011;10719;48.130;11.630;2022-12-29T06:32:35;1.95;;;0.68;;
21122;SDS011;10719;48.130;11.630;2022-12-29T06:35:02;1.52;;;0.75;;
21122;SDS011;10719;48.130;11.630;2022-12-29T06:37:28;0.77;;;0.50;;
21122;SDS011;10719;48.130;11.630;2022-12-29T06:39:54;4.07;;;1.77;;
21122;SDS011;10719;48.130;11.630;2022-12-29T06:42:20;1.55;;;0.73;;
21122;SDS011;10719;48.130;11.630;2022-12-29T06:44:46;1.55;;;0.70;;
21122;SDS011;10719;48.130;11.630;2022-12-29T06:47:11;0.25;;;0.25;;
21122;SDS011;10719;48.130;11.630;2022-12-29T06:49:37;0.85;;;0.57;;
21122;SDS011;10719;48.130;11.630;2022-12-29T06:52:03;0.65;;;0.63;;
21122;SDS011;10719;48.130;11.630;2022-12-29T06:54:29;0.50;;;0.50;;
21122;SDS011;10719;48.130;11.630;2022-12-29T06:56:55;0.75;;;0.60;;
21122;SDS011;10719;48.130;11.630;2022-12-29T06:59:21;0.45;;;0.45;;
21122;SDS011;10719;48.130;11.630;2022-12-29T07:01:47;1.40;;;0.80;;
21122;SDS011;10719;48.130;11.630;2022-12-29T07:04:13;1.20;;;0.63;;
21122;SDS011;10719;48.130;11.630;2022-12-29T07:06:38;3.63;;;0.75;;
21122;SDS011;10719;48.130;11.630;2022-12-29T07:09:05;0.50;;;0.50;;
21122;SDS011;10719;48.130;11.630;2022-12-29T07:11:32;0.60;;;0.60;;
21122;SDS011;10719;48.130;11.630;2022-12-29T07:13:58;0.77;;;0.68;;
21122;SDS011;10719;48.130;11.630;2022-12-29T07:16:24;0.40;;;0.40;;
21122;SDS011;10719;48.130;11.630;2022-12-29T07:18:49;2.33;;;0.95;;
21122;SDS011;10719;48.130;11.630;2022-12-29T07:21:16;2.70;;;1.25;;
21122;SDS011;10719;48.130;11.630;2022-12-29T07:23:42;2.47;;;1.00;;
21122;SDS011;10719;48.130;11.630;2022-12-29T07:26:08;0.47;;;0.47;;
21122;SDS011;10719;48.130;11.630;2022-12-29T07:28:36;1.52;;;0.70;;
21122;SDS011;10719;48.130;11.630;2022-12-29T07:31:03;4.32;;;1.20;;
21122;SDS011;10719;48.130;11.630;2022-12-29T07:33:29;1.38;;;0.65;;
21122;SDS011;10719;48.130;11.630;2022-12-29T07:35:55;2.30;;;0.80;;
21122;SDS011;10719;48.130;11.630;2022-12-29T07:38:21;2.53;;;0.60;;
21122;SDS011;10719;48.130;11.630;2022-12-29T07:40:47;0.52;;;0.50;;
21122;SDS011;10719;48.130;11.630;2022-12-29T07:43:12;0.88;;;0.52;;
21122;SDS011;10719;48.130;11.630;2022-12-29T07:45:38;0.50;;;0.45;;
21122;SDS011;10719;48.130;11.630;2022-12-29T07:48:04;1.10;;;0.60;;
21122;SDS011;10719;48.130;11.630;2022-12-29T07:50:34;0.65;;;0.43;;
21122;SDS011;10719;48.130;11.630;2022-12-29T07:53:00;0.52;;;0.52;;
21122;SDS011;10719;48.130;11.630;2022-12-29T07:55:26;0.93;;;0.75;;
21122;SDS011;10719;48.130;11.630;2022-12-29T07:57:53;2.42;;;0.90;;
21122;SDS011;10719;48.130;11.630;2022-12-29T08:00:19;2.22;;;0.77;;
21122;SDS011;10719;48.130;11.630;2022-12-29T08:02:45;1.80;;;0.70;;
21122;SDS011;10719;48.130;11.630;2022-12-29T08:05:10;0.98;;;0.70;;
21122;SDS011;10719;48.130;11.630;2022-12-29T08:07:36;0.68;;;0.60;;
21122;SDS011;10719;48.130;11.630;2022-12-29T08:10:02;1.42;;;0.63;;
21122;SDS011;10719;48.130;11.630;2022-12-29T08:12:28;1.30;;;0.70;;
21122;SDS011;10719;48.130;11.630;2022-12-29T08:14:54;1.90;;;0.70;;
21122;SDS011;10719;48.130;11.630;2022-12-29T08:17:19;2.33;;;0.80;;
21122;SDS011;10719;48.130;11.630;2022-12-29T08:19:45;1.45;;;0.60;;
21122;SDS011;10719;48.130;11.630;2022-12-29T08:22:10;1.10;;;0.70;;
21122;SDS011;10719;48.130;11.630;2022-12-29T08:24:36;4.07;;;1.00;;
21122;SDS011;10719;48.130;11.630;2022-12-29T08:27:01;1.02;;;0.40;;
21122;SDS011;10719;48.130;11.630;2022-12-29T08:29:27;2.38;;;0.93;;
21122;SDS011;10719;48.130;11.630;2022-12-29T08:31:53;0.63;;;0.50;;
21122;SDS011;10719;48.130;11.630;2022-12-29T08:34:18;0.75;;;0.47;;
21122;SDS011;10719;48.130;11.630;2022-12-29T08:36:44;0.77;;;0.50;;
21122;SDS011;10719;48.130;11.630;2022-12-29T08:39:09;1.80;;;0.60;;
21122;SDS011;10719;48.130;11.630;2022-12-29T08:41:35;1.98;;;0.70;;
21122;SDS011;10719;48.130;11.630;2022-12-29T08:44:01;1.05;;;0.57;;
21122;SDS011;10719;48.130;11.630;2022-12-29T08:46:26;1.02;;;0.63;;
21122;SDS011;10719;48.130;11.630;2022-12-29T08:48:52;1.77;;;1.02;;
21122;SDS011;10719;48.130;11.630;2022-12-29T08:51:18;4.32;;;0.73;;
21122;SDS011;10719;48.130;11.630;2022-12-29T08:53:44;1.50;;;0.65;;
21122;SDS011;10719;48.130;11.630;2022-12-29T08:56:10;1.02;;;0.60;;
21122;SDS011;10719;48.130;11.630;2022-12-29T08:58:36;0.50;;;0.50;;
21122;SDS011;10719;48.130;11.630;2022-12-29T09:01:02;0.57;;;0.57;;
21122;SDS011;10719;48.130;11.630;2022-12-29T09:03:28;5.95;;;1.10;;
21122;SDS011;10719;48.130;11.630;2022-12-29T09:05:54;1.08;;;0.60;;
21122;SDS011;10719;48.130;11.630;2022-12-29T09:08:20;1.52;;;0.75;;
21122;SDS011;10719;48.130;11.630;2022-12-29T09:10:47;1.52;;;0.57;;
21122;SDS011;10719;48.130;11.630;2022-12-29T09:13:13;2.53;;;0.90;;
21122;SDS011;10719;48.130;11.630;2022-12-29T09:15:39;0.55;;;0.55;;
21122;SDS011;10719;48.130;11.630;2022-12-29T09:18:06;1.23;;;0.70;;
21122;SDS011;10719;48.130;11.630;2022-12-29T09:20:34;0.77;;;0.68;;
21122;SDS011;10719;48.130;11.630;2022-12-29T09:22:59;3.25;;;1.00;;
21122;SDS011;10719;48.130;11.630;2022-12-29T09:25:26;1.83;;;0.80;;
21122;SDS011;10719;48.130;11.630;2022-12-29T09:27:52;2.55;;;1.00;;
21122;SDS011;10719;48.130;11.630;2022-12-29T09:30:19;2.33;;;0.95;;
21122;SDS011;10719;48.130;11.630;2022-12-29T09:32:45;0.65;;;0.47;;
21122;SDS011;10719;48.130;11.630;2022-12-29T09:35:11;0.45;;;0.45;;
21122;SDS011;10719;48.130;11.630;2022-12-29T09:37:38;2.80;;;0.75;;
21122;SDS011;10719;48.130;11.630;2022-12-29T09:40:04;1.60;;;0.93;;
21122;SDS011;10719;48.130;11.630;2022-12-29T09:42:38;1.02;;;0.50;;
21122;SDS011;10719;48.130;11.630;2022-12-29T09:47:42;2.33;;;0.90;;
21122;SDS011;10719;48.130;11.630;2022-12-29T09:50:11;0.85;;;0.50;;
21122;SDS011;10719;48.130;11.630;2022-12-29T09:55:38;1.17;;;0.57;;
21122;SDS011;10719;48.130;11.630;2022-12-29T09:58:19;2.95;;;0.73;;
21122;SDS011;10719;48.130;11.630;2022-12-29T10:01:07;1.63;;;0.50;;
21122;SDS011;10719;48.130;11.630;2022-12-29T10:03:51;0.75;;;0.52;;
21122;SDS011;10719;48.130;11.630;2022-12-29T10:06:26;0.93;;;0.45;;
21122;SDS011;10719;48.130;11.630;2022-12-29T10:17:21;0.40;;;0.40;;
21122;SDS011;10719;48.130;11.630;2022-12-29T10:20:12;0.80;;;0.50;;
21122;SDS011;10719;48.130;11.630;2022-12-29T10:25:43;1.55;;;0.82;;
21122;SDS011;10719;48.130;11.630;2022-12-29T10:30:46;0.47;;;0.38;;
21122;SDS011;10719;48.130;11.630;2022-12-29T10:33:33;0.82;;;0.60;;
21122;SDS011;10719;48.130;11.630;2022-12-29T10:36:03;0.55;;;0.50;;
21122;SDS011;10719;48.130;11.630;2022-12-29T10:38:51;0.40;;;0.40;;
21122;SDS011;10719;48.130;11.630;2022-12-29T10:41:34;1.30;;;0.60;;
21122;SDS011;10719;48.130;11.630;2022-12-29T10:44:07;1.67;;;0.50;;
21122;SDS011;10719;48.130;11.630;2022-12-29T10:46:35;1.85;;;0.70;;
21122;SDS011;10719;48.130;11.630;2022-12-29T10:49:03;2.50;;;0.70;;
21122;SDS011;10719;48.130;11.630;2022-12-29T10:51:32;1.73;;;0.50;;
21122;SDS011;10719;48.130;11.630;2022-12-29T10:54:12;1.52;;;0.68;;
21122;SDS011;10719;48.130;11.630;2022-12-29T10:56:44;1.10;;;0.50;;
21122;SDS011;10719;48.130;11.630;2022-12-29T10:59:26;0.75;;;0.50;;
21122;SDS011;10719;48.130;11.630;2022-12-29T11:07:20;0.70;;;0.60;;
21122;SDS011;10719;48.130;11.630;2022-12-29T11:09:49;0.63;;;0.47;;
21122;SDS011;10719;48.130;11.630;2022-12-29T11:12:18;1.25;;;0.63;;
21122;SDS011;10719;48.130;11.630;2022-12-29T11:14:47;0.40;;;0.40;;
21122;SDS011;10719;48.130;11.630;2022-12-29T11:17:25;0.40;;;0.40;;
21122;SDS011;10719;48.130;11.630;2022-12-29T11:19:51;2.53;;;0.68;;
21122;SDS011;10719;48.130;11.630;2022-12-29T11:22:27;0.73;;;0.60;;
21122;SDS011;10719;48.130;11.630;2022-12-29T11:24:54;2.05;;;0.90;;
21122;SDS011;10719;48.130;11.630;2022-12-29T11:27:29;3.70;;;0.90;;
21122;SDS011;10719;48.130;11.630;2022-12-29T11:29:55;0.40;;;0.40;;
21122;SDS011;10719;48.130;11.630;2022-12-29T11:32:21;3.75;;;0.63;;
21122;SDS011;10719;48.130;11.630;2022-12-29T11:34:48;1.42;;;0.65;;
21122;SDS011;10719;48.130;11.630;2022-12-29T11:37:18;0.43;;;0.40;;
21122;SDS011;10719;48.130;11.630;2022-12-29T11:39:58;2.15;;;0.60;;
21122;SDS011;10719;48.130;11.630;2022-12-29T11:42:34;2.08;;;0.60;;
21122;SDS011;10719;48.130;11.630;2022-12-29T11:45:05;2.50;;;0.88;;
21122;SDS011;10719;48.130;11.630;2022-12-29T11:47:41;0.47;;;0.47;;
21122;SDS011;10719;48.130;11.630;2022-12-29T11:50:15;1.67;;;0.70;;
21122;SDS011;10719;48.130;11.630;2022-12-29T11:53:05;2.90;;;0.50;;
21122;SDS011;10719;48.130;11.630;2022-12-29T11:55:51;2.65;;;0.80;;
21122;SDS011;10719;48.130;11.630;2022-12-29T11:58:19;2.47;;;0.80;;
21122;SDS011;10719;48.130;11.630;2022-12-29T12:00:45;1.30;;;0.70;;
21122;SDS011;10719;48.130;11.630;2022-12-29T12:03:21;1.40;;;0.60;;
21122;SDS011;10719;48.130;11.630;2022-12-29T12:06:00;0.50;;;0.40;;
21122;SDS011;10719;48.130;11.630;2022-12-29T12:08:34;4.03;;;1.23;;
21122;SDS011;10719;48.130;11.630;2022-12-29T12:11:10;2.15;;;0.90;;
21122;SDS011;10719;48.130;11.630;2022-12-29T12:13:46;1.15;;;0.57;;
21122;SDS011;10719;48.130;11.630;2022-12-29T12:16:18;0.90;;;0.68;;
21122;SDS011;10719;48.130;11.630;2022-12-29T12:18:56;2.33;;;0.85;;
21122;SDS011;10719;48.130;11.630;2022-12-29T12:22:01;2.60;;;0.82;;
21122;SDS011;10719;48.130;11.630;2022-12-29T12:27:02;1.83;;;0.68;;
21122;SDS011;10719;48.130;11.630;2022-12-29T13:02:01;1.25;;;0.50;;
21122;SDS011;10719;48.130;11.630;2022-12-29T13:04:48;0.50;;;0.43;;
21122;SDS011;10719;48.130;11.630;2022-12-29T13:10:48;1.55;;;0.70;;
21122;SDS011;10719;48.130;11.630;2022-12-29T13:21:24;2.15;;;0.88;;
21122;SDS011;10719;48.130;11.630;2022-12-29T13:24:06;1.35;;;0.70;;
21122;SDS011;10719;48.130;11.630;2022-12-29T13:26:48;0.98;;;0.55;;
21122;SDS011;10719;48.130;11.630;2022-12-29T13:29:20;0.57;;;0.47;;
21122;SDS011;10719;48.130;11.630;2022-12-29T13:34:52;0.82;;;0.68;;
21122;SDS011;10719;48.130;11.630;2022-12-29T13:37:44;1.27;;;0.75;;
21122;SDS011;10719;48.130;11.630;2022-12-29T13:40:16;1.95;;;0.90;;
21122;SDS011;10719;48.130;11.630;2022-12-29T13:42:47;1.40;;;0.60;;
21122;SDS011;10719;48.130;11.630;2022-12-29T13:45:14;8.27;;;1.02;;
21122;SDS011;10719;48.130;11.630;2022-12-29T13:47:52;1.27;;;0.63;;
21122;SDS011;10719;48.130;11.630;2022-12-29T13:50:27;6.30;;;1.15;;
21122;SDS011;10719;48.130;11.630;2022-12-29T13:52:58;0.50;;;0.50;;
21122;SDS011;10719;48.130;11.630;2022-12-29T13:58:13;1.15;;;0.63;;
21122;SDS011;10719;48.130;11.630;2022-12-29T14:08:48;2.33;;;0.88;;
21122;SDS011;10719;48.130;11.630;2022-12-29T14:11:20;1.40;;;0.70;;
21122;SDS011;10719;48.130;11.630;2022-12-29T14:13:49;2.08;;;0.80;;
21122;SDS011;10719;48.130;11.630;2022-12-29T14:16:29;2.67;;;1.10;;
21122;SDS011;10719;48.130;11.630;2022-12-29T14:19:03;5.38;;;0.73;;
21122;SDS011;10719;48.130;11.630;2022-12-29T14:21:38;2.38;;;0.80;;
21122;SDS011;10719;48.130;11.630;2022-12-29T14:26:52;2.20;;;0.82;;
21122;SDS011;10719;48.130;11.630;2022-12-29T14:31:49;3.42;;;0.90;;
21122;SDS011;10719;48.130;11.630;2022-12-29T14:39:39;1.02;;;0.75;;
21122;SDS011;10719;48.130;11.630;2022-12-29T14:44:48;5.38;;;1.60;;
21122;SDS011;10719;48.130;11.630;2022-12-29T14:47:35;5.22;;;1.38;;
21122;SDS011;10719;48.130;11.630;2022-12-29T14:57:57;1.70;;;0.93;;
21122;SDS011;10719;48.130;11.630;2022-12-29T15:00:27;4.40;;;1.10;;
21122;SDS011;10719;48.130;11.630;2022-12-29T15:03:04;6.88;;;1.67;;
21122;SDS011;10719;48.130;11.630;2022-12-29T15:08:32;3.55;;;1.45;;
21122;SDS011;10719;48.130;11.630;2022-12-29T15:13:48;2.50;;;1.08;;
21122;SDS011;10719;48.130;11.630;2022-12-29T15:18:49;2.13;;;1.00;;
21122;SDS011;10719;48.130;11.630;2022-12-29T15:21:14;3.78;;;1.35;;
21122;SDS011;10719;48.130;11.630;2022-12-29T15:23:42;3.42;;;1.40;;
21122;SDS011;10719;48.130;11.630;2022-12-29T15:26:10;1.88;;;0.95;;
21122;SDS011;10719;48.130;11.630;2022-12-29T15:28:40;3.13;;;1.05;;
21122;SDS011;10719;48.130;11.630;2022-12-29T15:31:15;3.30;;;1.23;;
21122;SDS011;10719;48.130;11.630;2022-12-29T15:33:47;3.22;;;0.82;;
21122;SDS011;10719;48.130;11.630;2022-12-29T15:36:22;2.13;;;1.13;;
21122;SDS011;10719;48.130;11.630;2022-12-29T15:38:53;4.22;;;1.13;;
21122;SDS011;10719;48.130;11.630;2022-12-29T15:44:28;2.10;;;1.00;;
21122;SDS011;10719;48.130;11.630;2022-12-29T15:46:55;2.55;;;0.90;;
21122;SDS011;10719;48.130;11.630;2022-12-29T15:49:21;13.45;;;1.98;;
21122;SDS011;10719;48.130;11.630;2022-12-29T15:51:48;5.35;;;1.38;;
21122;SDS011;10719;48.130;11.630;2022-12-29T15:54:16;3.65;;;1.10;;
21122;SDS011;10719;48.130;11.630;2022-12-29T15:56:43;3.28;;;1.10;;
21122;SDS011;10719;48.130;11.630;2022-12-29T16:02:11;2.65;;;1.42;;
21122;SDS011;10719;48.130;11.630;2022-12-29T16:04:37;3.95;;;1.27;;
21122;SDS011;10719;48.130;11.630;2022-12-29T16:07:04;2.60;;;1.10;;
21122;SDS011;10719;48.130;11.630;2022-12-29T16:09:46;3.85;;;1.15;;
21122;SDS011;10719;48.130;11.630;2022-12-29T16:12:19;3.33;;;1.27;;
21122;SDS011;10719;48.130;11.630;2022-12-29T16:14:48;2.03;;;1.00;;
21122;SDS011;10719;48.130;11.630;2022-12-29T16:17:20;3.35;;;1.08;;
21122;SDS011;10719;48.130;11.630;2022-12-29T16:19:58;6.70;;;1.75;;
21122;SDS011;10719;48.130;11.630;2022-12-29T16:22:31;3.15;;;1.80;;
21122;SDS011;10719;48.130;11.630;2022-12-29T16:25:01;3.92;;;1.88;;
21122;SDS011;10719;48.130;11.630;2022-12-29T16:27:46;7.35;;;1.90;;
21122;SDS011;10719;48.130;11.630;2022-12-29T16:30:21;5.15;;;1.65;;
21122;SDS011;10719;48.130;11.630;2022-12-29T16:32:53;6.38;;;1.95;;
21122;SDS011;10719;48.130;11.630;2022-12-29T16:35:28;4.43;;;1.20;;
21122;SDS011;10719;48.130;11.630;2022-12-29T16:40:53;2.70;;;1.15;;
21122;SDS011;10719;48.130;11.630;2022-12-29T16:43:27;5.43;;;1.73;;
21122;SDS011;10719;48.130;11.630;2022-12-29T16:46:21;2.63;;;1.25;;
21122;SDS011;10719;48.130;11.630;2022-12-29T16:48:54;5.63;;;2.05;;
21122;SDS011;10719;48.130;11.630;2022-12-29T16:51:31;4.57;;;1.65;;
21122;SDS011;10719;48.130;11.630;2022-12-29T16:53:59;6.82;;;1.73;;
21122;SDS011;10719;48.130;11.630;2022-12-29T16:56:26;3.97;;;1.88;;
21122;SDS011;10719;48.130;11.630;2022-12-29T16:59:04;6.43;;;1.85;;
21122;SDS011;10719;48.130;11.630;2022-12-29T17:01:37;4.28;;;1.30;;
21122;SDS011;10719;48.130;11.630;2022-12-29T17:04:08;6.18;;;1.67;;
21122;SDS011;10719;48.130;11.630;2022-12-29T17:06:35;2.42;;;1.13;;
21122;SDS011;10719;48.130;11.630;2022-12-29T17:09:01;5.03;;;1.73;;
21122;SDS011;10719;48.130;11.630;2022-12-29T17:11:28;3.10;;;1.63;;
21122;SDS011;10719;48.130;11.630;2022-12-29T17:17:27;1.85;;;1.00;;
21122;SDS011;10719;48.130;11.630;2022-12-29T17:20:00;0.80;;;0.63;;
21122;SDS011;10719;48.130;11.630;2022-12-29T17:22:29;3.85;;;0.95;;
21122;SDS011;10719;48.130;11.630;2022-12-29T17:24:56;1.23;;;0.85;;
21122;SDS011;10719;48.130;11.630;2022-12-29T17:27:42;2.75;;;1.00;;
21122;SDS011;10719;48.130;11.630;2022-12-29T17:32:36;3.67;;;1.23;;
21122;SDS011;10719;48.130;11.630;2022-12-29T17:35:02;3.95;;;1.50;;
21122;SDS011;10719;48.130;11.630;2022-12-29T17:39:56;5.25;;;1.50;;
21122;SDS011;10719;48.130;11.630;2022-12-29T17:42:21;5.45;;;1.80;;
21122;SDS011;10719;48.130;11.630;2022-12-29T17:44:47;8.20;;;2.25;;